Airfield :
LOGIN :

Register | Disclaimer

   EN    FR    IT 

 










Legend :    VFR   Marginal VFR   IFR   Intensive IFR   Very Intensive IFR
Visi :
Ceiling :
>= 8 km
>= 3000ft
5 to 8 km
1000 to 3000 ft
1500m to 5 km
500 to 1000 ft
800 to 1500m
200 to 500 ft
< 800m
< 200 ft
Symbols :   Thunderstorms  Fog  Heavy snow  Heavy precipitations  Wind > 20 kt
SIGMETs :     Misc.  Thunderstorms  Icing  Turbulence  Mountain Waves  Volcanic Ashes






- Airport Elevation : 325 ft


LPCS - Cascais

CURRENT METAR :
  • 152000Z 34011KT 9999 FEW016 FEW030TCU 09/04 Q1013

EXPIRED METARs :
  • 151930Z 35009KT 9999 -SHRA FEW016 FEW030CB 09/05 Q1013
  • 151900Z 35009KT 9999 FEW020 FEW030CB 08/05 Q1013
  • 151830Z 35009KT 9999 FEW020 FEW030CB 09/05 Q1013
  • 151800Z 36009KT 9999 FEW020 FEW030CB 08/04 Q1013
  • 151730Z 36014KT 9999 FEW020 FEW030CB 09/04 Q1013

TAF AMD TAF LPCS
Valid from the 15 at 16:00 until the 16 at 00:00 UTC


151635Z 1516/1524 34013KT 9999 FEW016
TEMPO 1516/1519 34020G32KT 8000 SHRAGS SCT016 FEW030CB



MET'MAP, your aeronautical weather chart ! - Copyright ORBIFLY December 2007 - Disclaimer

ORBIFLY MET'MAP TEAM :

Programming & Development : Alexandra Zaïnal
Concept & Development : Baudouin d'Aumeries
Co-Development & Prog : Marc-Olivier Méhu
Technical & hardware support : Manuel Goepfert

Contact : metmap@orbifly.com




SOURCES & CREDITS :

   NOAA